sensor_id;sensor_type;location;lat;lon;timestamp;P1;durP1;ratioP1;P2;durP2;ratioP2
28904;SDS011;60848;53.884;11.446;2022-12-18T00:00:27;137.35;;;57.88;;
28904;SDS011;60848;53.884;11.446;2022-12-18T00:02:56;131.73;;;56.15;;
28904;SDS011;60848;53.884;11.446;2022-12-18T00:05:27;135.20;;;56.15;;
28904;SDS011;60848;53.884;11.446;2022-12-18T00:07:57;133.30;;;56.13;;
28904;SDS011;60848;53.884;11.446;2022-12-18T00:10:27;133.45;;;57.08;;
28904;SDS011;60848;53.884;11.446;2022-12-18T00:12:56;135.05;;;55.47;;
28904;SDS011;60848;53.884;11.446;2022-12-18T00:15:27;134.65;;;57.50;;
28904;SDS011;60848;53.884;11.446;2022-12-18T00:17:58;130.93;;;55.90;;
28904;SDS011;60848;53.884;11.446;2022-12-18T00:20:29;132.60;;;55.40;;
28904;SDS011;60848;53.884;11.446;2022-12-18T00:23:00;130.27;;;55.57;;
28904;SDS011;60848;53.884;11.446;2022-12-18T00:25:28;136.55;;;55.33;;
28904;SDS011;60848;53.884;11.446;2022-12-18T00:27:57;131.00;;;54.03;;
28904;SDS011;60848;53.884;11.446;2022-12-18T00:30:26;132.32;;;55.17;;
28904;SDS011;60848;53.884;11.446;2022-12-18T00:32:54;133.70;;;55.22;;
28904;SDS011;60848;53.884;11.446;2022-12-18T00:35:24;131.98;;;54.78;;
28904;SDS011;60848;53.884;11.446;2022-12-18T00:37:55;135.80;;;54.92;;
28904;SDS011;60848;53.884;11.446;2022-12-18T00:40:25;131.18;;;54.38;;
28904;SDS011;60848;53.884;11.446;2022-12-18T00:42:54;128.40;;;53.65;;
28904;SDS011;60848;53.884;11.446;2022-12-18T00:45:22;135.30;;;54.67;;
28904;SDS011;60848;53.884;11.446;2022-12-18T00:47:51;134.98;;;56.40;;
28904;SDS011;60848;53.884;11.446;2022-12-18T00:50:22;134.02;;;54.95;;
28904;SDS011;60848;53.884;11.446;2022-12-18T00:52:54;133.27;;;54.67;;
28904;SDS011;60848;53.884;11.446;2022-12-18T00:55:23;138.90;;;55.83;;
28904;SDS011;60848;53.884;11.446;2022-12-18T00:57:55;132.40;;;53.93;;
28904;SDS011;60848;53.884;11.446;2022-12-18T01:00:24;131.20;;;55.10;;
28904;SDS011;60848;53.884;11.446;2022-12-18T01:02:52;129.18;;;53.92;;
28904;SDS011;60848;53.884;11.446;2022-12-18T01:05:21;128.40;;;53.55;;
28904;SDS011;60848;53.884;11.446;2022-12-18T01:07:50;131.23;;;54.57;;
28904;SDS011;60848;53.884;11.446;2022-12-18T01:10:18;131.17;;;53.83;;
28904;SDS011;60848;53.884;11.446;2022-12-18T01:12:49;129.65;;;53.35;;
28904;SDS011;60848;53.884;11.446;2022-12-18T01:15:18;129.43;;;54.30;;
28904;SDS011;60848;53.884;11.446;2022-12-18T01:17:47;135.23;;;53.50;;
28904;SDS011;60848;53.884;11.446;2022-12-18T01:20:16;130.25;;;54.08;;
28904;SDS011;60848;53.884;11.446;2022-12-18T01:22:45;130.73;;;53.45;;
28904;SDS011;60848;53.884;11.446;2022-12-18T01:25:13;129.02;;;53.00;;
28904;SDS011;60848;53.884;11.446;2022-12-18T01:27:42;129.73;;;53.83;;
28904;SDS011;60848;53.884;11.446;2022-12-18T01:30:13;132.98;;;54.08;;
28904;SDS011;60848;53.884;11.446;2022-12-18T01:32:41;126.55;;;52.83;;
28904;SDS011;60848;53.884;11.446;2022-12-18T01:35:10;135.23;;;53.88;;
28904;SDS011;60848;53.884;11.446;2022-12-18T01:37:39;124.82;;;52.95;;
28904;SDS011;60848;53.884;11.446;2022-12-18T01:40:10;127.90;;;52.70;;
28904;SDS011;60848;53.884;11.446;2022-12-18T01:42:39;127.53;;;52.53;;
28904;SDS011;60848;53.884;11.446;2022-12-18T01:45:22;128.90;;;52.65;;
28904;SDS011;60848;53.884;11.446;2022-12-18T01:47:54;126.50;;;53.17;;
28904;SDS011;60848;53.884;11.446;2022-12-18T01:50:27;127.87;;;52.93;;
28904;SDS011;60848;53.884;11.446;2022-12-18T01:53:02;128.00;;;53.58;;
28904;SDS011;60848;53.884;11.446;2022-12-18T01:55:37;130.20;;;52.97;;
28904;SDS011;60848;53.884;11.446;2022-12-18T01:58:10;127.15;;;52.75;;
28904;SDS011;60848;53.884;11.446;2022-12-18T02:00:40;126.20;;;52.75;;
28904;SDS011;60848;53.884;11.446;2022-12-18T02:03:10;126.03;;;52.67;;
28904;SDS011;60848;53.884;11.446;2022-12-18T02:05:43;124.28;;;52.28;;
28904;SDS011;60848;53.884;11.446;2022-12-18T02:08:19;128.45;;;52.88;;
28904;SDS011;60848;53.884;11.446;2022-12-18T02:10:55;129.38;;;52.10;;
28904;SDS011;60848;53.884;11.446;2022-12-18T02:13:36;127.22;;;51.80;;
28904;SDS011;60848;53.884;11.446;2022-12-18T02:16:14;124.82;;;51.67;;
28904;SDS011;60848;53.884;11.446;2022-12-18T02:18:51;124.80;;;52.53;;
28904;SDS011;60848;53.884;11.446;2022-12-18T02:21:27;127.87;;;53.07;;
28904;SDS011;60848;53.884;11.446;2022-12-18T02:24:08;125.45;;;51.17;;
28904;SDS011;60848;53.884;11.446;2022-12-18T02:26:54;131.95;;;52.42;;
28904;SDS011;60848;53.884;11.446;2022-12-18T02:29:25;125.30;;;51.13;;
28904;SDS011;60848;53.884;11.446;2022-12-18T02:32:00;124.47;;;51.78;;
28904;SDS011;60848;53.884;11.446;2022-12-18T02:34:32;123.50;;;51.60;;
28904;SDS011;60848;53.884;11.446;2022-12-18T02:37:05;125.20;;;52.03;;
28904;SDS011;60848;53.884;11.446;2022-12-18T02:39:38;124.00;;;51.15;;
28904;SDS011;60848;53.884;11.446;2022-12-18T02:42:11;123.13;;;50.70;;
28904;SDS011;60848;53.884;11.446;2022-12-18T02:44:44;124.65;;;50.30;;
28904;SDS011;60848;53.884;11.446;2022-12-18T02:47:15;125.97;;;50.20;;
28904;SDS011;60848;53.884;11.446;2022-12-18T02:49:49;123.35;;;50.80;;
28904;SDS011;60848;53.884;11.446;2022-12-18T02:52:27;125.50;;;50.70;;
28904;SDS011;60848;53.884;11.446;2022-12-18T02:55:07;125.43;;;51.42;;
28904;SDS011;60848;53.884;11.446;2022-12-18T02:57:48;122.35;;;51.10;;
28904;SDS011;60848;53.884;11.446;2022-12-18T03:00:22;118.70;;;49.60;;
28904;SDS011;60848;53.884;11.446;2022-12-18T03:02:56;120.90;;;50.30;;
28904;SDS011;60848;53.884;11.446;2022-12-18T03:05:33;122.63;;;49.80;;
28904;SDS011;60848;53.884;11.446;2022-12-18T03:08:07;121.87;;;49.97;;
28904;SDS011;60848;53.884;11.446;2022-12-18T03:10:42;118.45;;;49.03;;
28904;SDS011;60848;53.884;11.446;2022-12-18T03:13:16;122.45;;;49.88;;
28904;SDS011;60848;53.884;11.446;2022-12-18T03:15:51;120.13;;;49.33;;
28904;SDS011;60848;53.884;11.446;2022-12-18T03:18:23;122.05;;;50.30;;
28904;SDS011;60848;53.884;11.446;2022-12-18T03:20:58;124.80;;;49.45;;
28904;SDS011;60848;53.884;11.446;2022-12-18T03:23:34;117.40;;;48.77;;
28904;SDS011;60848;53.884;11.446;2022-12-18T03:26:07;119.32;;;48.90;;
28904;SDS011;60848;53.884;11.446;2022-12-18T03:28:42;121.25;;;50.30;;
28904;SDS011;60848;53.884;11.446;2022-12-18T03:31:14;121.60;;;50.03;;
28904;SDS011;60848;53.884;11.446;2022-12-18T03:33:45;119.55;;;49.35;;
28904;SDS011;60848;53.884;11.446;2022-12-18T03:36:20;121.85;;;48.88;;
28904;SDS011;60848;53.884;11.446;2022-12-18T03:38:50;120.10;;;49.67;;
28904;SDS011;60848;53.884;11.446;2022-12-18T03:41:20;120.80;;;50.15;;
28904;SDS011;60848;53.884;11.446;2022-12-18T03:43:59;120.95;;;50.13;;
28904;SDS011;60848;53.884;11.446;2022-12-18T03:46:36;120.65;;;50.35;;
28904;SDS011;60848;53.884;11.446;2022-12-18T03:49:13;119.47;;;49.40;;
28904;SDS011;60848;53.884;11.446;2022-12-18T03:51:50;118.93;;;49.38;;
28904;SDS011;60848;53.884;11.446;2022-12-18T03:54:24;121.82;;;49.05;;
28904;SDS011;60848;53.884;11.446;2022-12-18T03:56:57;119.10;;;48.63;;
28904;SDS011;60848;53.884;11.446;2022-12-18T03:59:32;119.13;;;49.25;;
28904;SDS011;60848;53.884;11.446;2022-12-18T04:02:02;121.80;;;49.28;;
28904;SDS011;60848;53.884;11.446;2022-12-18T04:04:34;113.32;;;47.88;;
28904;SDS011;60848;53.884;11.446;2022-12-18T04:07:04;116.10;;;47.87;;
28904;SDS011;60848;53.884;11.446;2022-12-18T04:09:34;117.60;;;49.40;;
28904;SDS011;60848;53.884;11.446;2022-12-18T04:12:04;122.53;;;49.03;;
28904;SDS011;60848;53.884;11.446;2022-12-18T04:14:34;114.65;;;48.30;;
28904;SDS011;60848;53.884;11.446;2022-12-18T04:17:02;114.10;;;47.72;;
28904;SDS011;60848;53.884;11.446;2022-12-18T04:19:31;116.22;;;48.78;;
28904;SDS011;60848;53.884;11.446;2022-12-18T04:22:00;116.32;;;48.53;;
28904;SDS011;60848;53.884;11.446;2022-12-18T04:24:28;114.85;;;47.30;;
28904;SDS011;60848;53.884;11.446;2022-12-18T04:26:56;113.13;;;48.15;;
28904;SDS011;60848;53.884;11.446;2022-12-18T04:29:25;113.25;;;47.65;;
28904;SDS011;60848;53.884;11.446;2022-12-18T04:31:55;113.40;;;47.23;;
28904;SDS011;60848;53.884;11.446;2022-12-18T04:34:23;115.70;;;47.45;;
28904;SDS011;60848;53.884;11.446;2022-12-18T04:36:52;114.65;;;48.08;;
28904;SDS011;60848;53.884;11.446;2022-12-18T04:39:21;118.13;;;47.83;;
28904;SDS011;60848;53.884;11.446;2022-12-18T04:41:50;112.72;;;46.92;;
28904;SDS011;60848;53.884;11.446;2022-12-18T04:44:18;116.82;;;47.58;;
28904;SDS011;60848;53.884;11.446;2022-12-18T04:46:47;115.55;;;47.78;;
28904;SDS011;60848;53.884;11.446;2022-12-18T04:49:17;112.93;;;46.97;;
28904;SDS011;60848;53.884;11.446;2022-12-18T04:51:45;113.03;;;47.58;;
28904;SDS011;60848;53.884;11.446;2022-12-18T04:54:14;115.65;;;47.45;;
28904;SDS011;60848;53.884;11.446;2022-12-18T04:56:43;113.78;;;47.38;;
28904;SDS011;60848;53.884;11.446;2022-12-18T04:59:12;116.00;;;47.53;;
28904;SDS011;60848;53.884;11.446;2022-12-18T05:01:40;115.93;;;47.70;;
28904;SDS011;60848;53.884;11.446;2022-12-18T05:04:09;110.60;;;46.25;;
28904;SDS011;60848;53.884;11.446;2022-12-18T05:06:39;112.82;;;46.97;;
28904;SDS011;60848;53.884;11.446;2022-12-18T05:09:08;115.32;;;46.95;;
28904;SDS011;60848;53.884;11.446;2022-12-18T05:11:36;112.97;;;47.58;;
28904;SDS011;60848;53.884;11.446;2022-12-18T05:14:05;112.85;;;47.53;;
28904;SDS011;60848;53.884;11.446;2022-12-18T05:16:33;113.95;;;47.22;;
28904;SDS011;60848;53.884;11.446;2022-12-18T05:19:02;112.18;;;46.90;;
28904;SDS011;60848;53.884;11.446;2022-12-18T05:21:30;112.65;;;46.47;;
28904;SDS011;60848;53.884;11.446;2022-12-18T05:24:00;114.25;;;46.75;;
28904;SDS011;60848;53.884;11.446;2022-12-18T05:26:28;113.90;;;48.00;;
28904;SDS011;60848;53.884;11.446;2022-12-18T05:28:57;115.88;;;46.97;;
28904;SDS011;60848;53.884;11.446;2022-12-18T05:31:25;112.30;;;46.05;;
28904;SDS011;60848;53.884;11.446;2022-12-18T05:33:54;116.28;;;47.03;;
28904;SDS011;60848;53.884;11.446;2022-12-18T05:36:23;112.65;;;47.22;;
28904;SDS011;60848;53.884;11.446;2022-12-18T05:38:51;114.10;;;47.07;;
28904;SDS011;60848;53.884;11.446;2022-12-18T05:41:21;113.88;;;46.83;;
28904;SDS011;60848;53.884;11.446;2022-12-18T05:43:50;113.50;;;46.78;;
28904;SDS011;60848;53.884;11.446;2022-12-18T05:46:18;111.40;;;47.55;;
28904;SDS011;60848;53.884;11.446;2022-12-18T05:48:47;113.22;;;47.20;;
28904;SDS011;60848;53.884;11.446;2022-12-18T05:51:17;116.20;;;47.80;;
28904;SDS011;60848;53.884;11.446;2022-12-18T05:53:47;114.63;;;47.05;;
28904;SDS011;60848;53.884;11.446;2022-12-18T05:56:17;115.35;;;47.03;;
28904;SDS011;60848;53.884;11.446;2022-12-18T05:58:52;113.40;;;46.63;;
28904;SDS011;60848;53.884;11.446;2022-12-18T06:01:23;114.47;;;46.97;;
28904;SDS011;60848;53.884;11.446;2022-12-18T06:03:54;113.35;;;46.90;;
28904;SDS011;60848;53.884;11.446;2022-12-18T06:06:24;111.32;;;46.05;;
28904;SDS011;60848;53.884;11.446;2022-12-18T06:08:55;110.60;;;46.10;;
28904;SDS011;60848;53.884;11.446;2022-12-18T06:11:25;112.78;;;47.13;;
28904;SDS011;60848;53.884;11.446;2022-12-18T06:13:55;112.15;;;46.42;;
28904;SDS011;60848;53.884;11.446;2022-12-18T06:16:26;109.85;;;46.10;;
28904;SDS011;60848;53.884;11.446;2022-12-18T06:18:56;110.80;;;46.45;;
28904;SDS011;60848;53.884;11.446;2022-12-18T06:21:25;113.25;;;46.67;;
28904;SDS011;60848;53.884;11.446;2022-12-18T06:23:54;111.45;;;45.97;;
28904;SDS011;60848;53.884;11.446;2022-12-18T06:26:23;112.45;;;46.88;;
28904;SDS011;60848;53.884;11.446;2022-12-18T06:28:54;111.57;;;45.70;;
28904;SDS011;60848;53.884;11.446;2022-12-18T06:31:24;113.30;;;46.67;;
28904;SDS011;60848;53.884;11.446;2022-12-18T06:33:54;110.53;;;45.80;;
28904;SDS011;60848;53.884;11.446;2022-12-18T06:36:22;113.00;;;46.47;;
28904;SDS011;60848;53.884;11.446;2022-12-18T06:38:51;111.88;;;46.20;;
28904;SDS011;60848;53.884;11.446;2022-12-18T06:41:20;109.05;;;46.17;;
28904;SDS011;60848;53.884;11.446;2022-12-18T06:43:49;110.53;;;46.65;;
28904;SDS011;60848;53.884;11.446;2022-12-18T06:46:24;109.53;;;46.08;;
28904;SDS011;60848;53.884;11.446;2022-12-18T06:48:53;108.72;;;46.28;;
28904;SDS011;60848;53.884;11.446;2022-12-18T06:51:22;111.18;;;46.85;;
28904;SDS011;60848;53.884;11.446;2022-12-18T06:53:51;110.53;;;46.60;;
28904;SDS011;60848;53.884;11.446;2022-12-18T06:56:20;111.68;;;46.47;;
28904;SDS011;60848;53.884;11.446;2022-12-18T06:58:49;110.88;;;46.63;;
28904;SDS011;60848;53.884;11.446;2022-12-18T07:01:18;112.85;;;46.65;;
28904;SDS011;60848;53.884;11.446;2022-12-18T07:03:51;112.13;;;46.72;;
28904;SDS011;60848;53.884;11.446;2022-12-18T07:06:21;111.65;;;46.53;;
28904;SDS011;60848;53.884;11.446;2022-12-18T07:08:52;113.57;;;47.38;;
28904;SDS011;60848;53.884;11.446;2022-12-18T07:11:22;110.72;;;46.15;;
28904;SDS011;60848;53.884;11.446;2022-12-18T07:13:51;110.95;;;46.13;;
28904;SDS011;60848;53.884;11.446;2022-12-18T07:16:20;111.70;;;45.88;;
28904;SDS011;60848;53.884;11.446;2022-12-18T07:18:53;112.63;;;46.35;;
28904;SDS011;60848;53.884;11.446;2022-12-18T07:21:23;108.10;;;46.20;;
28904;SDS011;60848;53.884;11.446;2022-12-18T07:23:52;108.85;;;45.83;;
28904;SDS011;60848;53.884;11.446;2022-12-18T07:26:21;110.40;;;46.42;;
28904;SDS011;60848;53.884;11.446;2022-12-18T07:28:50;114.82;;;47.88;;
28904;SDS011;60848;53.884;11.446;2022-12-18T07:31:23;114.35;;;47.80;;
28904;SDS011;60848;53.884;11.446;2022-12-18T07:33:54;110.63;;;45.53;;
28904;SDS011;60848;53.884;11.446;2022-12-18T07:36:22;108.28;;;45.10;;
28904;SDS011;60848;53.884;11.446;2022-12-18T07:38:51;107.70;;;45.63;;
28904;SDS011;60848;53.884;11.446;2022-12-18T07:41:20;113.32;;;47.03;;
28904;SDS011;60848;53.884;11.446;2022-12-18T07:43:49;110.55;;;45.95;;
28904;SDS011;60848;53.884;11.446;2022-12-18T07:46:17;109.45;;;46.03;;
28904;SDS011;60848;53.884;11.446;2022-12-18T07:48:46;112.57;;;46.72;;
28904;SDS011;60848;53.884;11.446;2022-12-18T07:51:17;112.05;;;46.70;;
28904;SDS011;60848;53.884;11.446;2022-12-18T07:53:46;112.80;;;48.03;;
28904;SDS011;60848;53.884;11.446;2022-12-18T07:56:17;110.93;;;47.08;;
28904;SDS011;60848;53.884;11.446;2022-12-18T07:58:56;111.15;;;46.05;;
28904;SDS011;60848;53.884;11.446;2022-12-18T08:01:26;110.17;;;46.10;;
28904;SDS011;60848;53.884;11.446;2022-12-18T08:03:54;113.57;;;46.78;;
28904;SDS011;60848;53.884;11.446;2022-12-18T08:06:25;110.35;;;46.53;;
28904;SDS011;60848;53.884;11.446;2022-12-18T08:08:54;115.25;;;47.70;;
28904;SDS011;60848;53.884;11.446;2022-12-18T08:11:24;116.88;;;47.40;;
28904;SDS011;60848;53.884;11.446;2022-12-18T08:13:54;114.68;;;47.47;;
28904;SDS011;60848;53.884;11.446;2022-12-18T08:16:23;116.20;;;48.22;;
28904;SDS011;60848;53.884;11.446;2022-12-18T08:18:52;112.20;;;47.13;;
28904;SDS011;60848;53.884;11.446;2022-12-18T08:21:21;115.20;;;47.55;;
28904;SDS011;60848;53.884;11.446;2022-12-18T08:23:53;119.13;;;49.22;;
28904;SDS011;60848;53.884;11.446;2022-12-18T08:26:24;115.00;;;47.30;;
28904;SDS011;60848;53.884;11.446;2022-12-18T08:28:56;114.70;;;47.40;;
28904;SDS011;60848;53.884;11.446;2022-12-18T08:31:27;115.47;;;47.58;;
28904;SDS011;60848;53.884;11.446;2022-12-18T08:33:57;116.07;;;48.05;;
28904;SDS011;60848;53.884;11.446;2022-12-18T08:36:26;115.97;;;48.00;;
28904;SDS011;60848;53.884;11.446;2022-12-18T08:38:56;117.33;;;48.27;;
28904;SDS011;60848;53.884;11.446;2022-12-18T08:41:26;116.63;;;48.17;;
28904;SDS011;60848;53.884;11.446;2022-12-18T08:43:55;115.60;;;47.60;;
28904;SDS011;60848;53.884;11.446;2022-12-18T08:46:41;119.32;;;48.63;;
28904;SDS011;60848;53.884;11.446;2022-12-18T08:49:11;120.70;;;49.33;;
28904;SDS011;60848;53.884;11.446;2022-12-18T08:51:40;119.50;;;48.42;;
28904;SDS011;60848;53.884;11.446;2022-12-18T08:54:10;121.97;;;49.17;;
28904;SDS011;60848;53.884;11.446;2022-12-18T08:56:40;122.97;;;49.00;;
28904;SDS011;60848;53.884;11.446;2022-12-18T08:59:08;120.75;;;48.28;;
28904;SDS011;60848;53.884;11.446;2022-12-18T09:01:44;124.93;;;48.92;;
28904;SDS011;60848;53.884;11.446;2022-12-18T09:04:14;123.13;;;48.97;;
28904;SDS011;60848;53.884;11.446;2022-12-18T09:06:43;122.68;;;49.08;;
28904;SDS011;60848;53.884;11.446;2022-12-18T09:09:13;123.82;;;49.53;;
28904;SDS011;60848;53.884;11.446;2022-12-18T09:11:41;124.05;;;49.80;;
28904;SDS011;60848;53.884;11.446;2022-12-18T09:14:10;122.95;;;48.95;;
28904;SDS011;60848;53.884;11.446;2022-12-18T09:16:38;126.80;;;50.85;;
28904;SDS011;60848;53.884;11.446;2022-12-18T09:19:07;127.43;;;49.83;;
28904;SDS011;60848;53.884;11.446;2022-12-18T09:21:36;126.60;;;49.78;;
28904;SDS011;60848;53.884;11.446;2022-12-18T09:24:15;126.40;;;50.30;;
28904;SDS011;60848;53.884;11.446;2022-12-18T09:26:44;129.55;;;49.53;;
28904;SDS011;60848;53.884;11.446;2022-12-18T09:29:13;129.85;;;50.42;;
28904;SDS011;60848;53.884;11.446;2022-12-18T09:31:44;127.20;;;50.00;;
28904;SDS011;60848;53.884;11.446;2022-12-18T09:34:12;129.93;;;51.50;;
28904;SDS011;60848;53.884;11.446;2022-12-18T09:36:41;128.93;;;50.67;;
28904;SDS011;60848;53.884;11.446;2022-12-18T09:39:09;130.40;;;50.83;;
28904;SDS011;60848;53.884;11.446;2022-12-18T09:41:44;128.68;;;51.50;;
28904;SDS011;60848;53.884;11.446;2022-12-18T09:44:22;131.40;;;50.95;;
28904;SDS011;60848;53.884;11.446;2022-12-18T09:46:56;128.63;;;50.92;;
28904;SDS011;60848;53.884;11.446;2022-12-18T09:49:39;129.55;;;51.58;;
28904;SDS011;60848;53.884;11.446;2022-12-18T09:52:12;131.77;;;51.10;;
28904;SDS011;60848;53.884;11.446;2022-12-18T09:54:49;131.10;;;51.17;;
28904;SDS011;60848;53.884;11.446;2022-12-18T09:57:24;129.68;;;51.05;;
28904;SDS011;60848;53.884;11.446;2022-12-18T09:59:54;133.63;;;51.67;;
28904;SDS011;60848;53.884;11.446;2022-12-18T10:02:26;135.35;;;52.30;;
28904;SDS011;60848;53.884;11.446;2022-12-18T10:05:03;132.52;;;51.17;;
28904;SDS011;60848;53.884;11.446;2022-12-18T10:07:38;131.82;;;52.00;;
28904;SDS011;60848;53.884;11.446;2022-12-18T10:10:30;131.90;;;50.92;;
28904;SDS011;60848;53.884;11.446;2022-12-18T10:13:12;130.32;;;51.17;;
28904;SDS011;60848;53.884;11.446;2022-12-18T10:15:53;134.80;;;51.97;;
28904;SDS011;60848;53.884;11.446;2022-12-18T10:18:38;130.27;;;51.25;;
28904;SDS011;60848;53.884;11.446;2022-12-18T10:21:38;134.00;;;50.95;;
28904;SDS011;60848;53.884;11.446;2022-12-18T10:24:14;130.35;;;51.28;;
28904;SDS011;60848;53.884;11.446;2022-12-18T10:26:51;129.45;;;50.55;;
28904;SDS011;60848;53.884;11.446;2022-12-18T10:29:25;132.90;;;51.85;;
28904;SDS011;60848;53.884;11.446;2022-12-18T10:31:54;132.68;;;51.65;;
28904;SDS011;60848;53.884;11.446;2022-12-18T10:34:23;129.15;;;50.90;;
28904;SDS011;60848;53.884;11.446;2022-12-18T10:36:52;132.63;;;51.35;;
28904;SDS011;60848;53.884;11.446;2022-12-18T10:39:21;134.57;;;52.25;;
28904;SDS011;60848;53.884;11.446;2022-12-18T10:41:52;131.93;;;51.17;;
28904;SDS011;60848;53.884;11.446;2022-12-18T10:44:43;135.82;;;51.90;;
28904;SDS011;60848;53.884;11.446;2022-12-18T10:47:12;131.93;;;50.78;;
28904;SDS011;60848;53.884;11.446;2022-12-18T10:49:47;130.35;;;51.60;;
28904;SDS011;60848;53.884;11.446;2022-12-18T10:52:18;129.35;;;50.75;;
28904;SDS011;60848;53.884;11.446;2022-12-18T10:54:51;127.00;;;50.20;;
28904;SDS011;60848;53.884;11.446;2022-12-18T10:57:29;130.70;;;51.15;;
28904;SDS011;60848;53.884;11.446;2022-12-18T11:02:52;133.80;;;53.00;;
28904;SDS011;60848;53.884;11.446;2022-12-18T11:05:23;135.20;;;52.17;;
28904;SDS011;60848;53.884;11.446;2022-12-18T11:07:55;133.20;;;52.60;;
28904;SDS011;60848;53.884;11.446;2022-12-18T11:10:26;138.45;;;53.47;;
28904;SDS011;60848;53.884;11.446;2022-12-18T11:13:09;138.55;;;53.20;;
28904;SDS011;60848;53.884;11.446;2022-12-18T11:15:41;138.45;;;52.78;;
28904;SDS011;60848;53.884;11.446;2022-12-18T11:18:16;136.70;;;52.72;;
28904;SDS011;60848;53.884;11.446;2022-12-18T11:20:51;137.63;;;53.63;;
28904;SDS011;60848;53.884;11.446;2022-12-18T11:23:24;137.50;;;53.05;;
28904;SDS011;60848;53.884;11.446;2022-12-18T11:25:55;136.38;;;53.20;;
28904;SDS011;60848;53.884;11.446;2022-12-18T11:28:35;136.90;;;52.67;;
28904;SDS011;60848;53.884;11.446;2022-12-18T11:31:12;138.10;;;54.13;;
28904;SDS011;60848;53.884;11.446;2022-12-18T11:34:00;134.82;;;52.85;;
28904;SDS011;60848;53.884;11.446;2022-12-18T11:36:53;138.48;;;55.15;;
28904;SDS011;60848;53.884;11.446;2022-12-18T11:39:24;136.15;;;53.40;;
28904;SDS011;60848;53.884;11.446;2022-12-18T11:41:59;134.38;;;52.65;;
28904;SDS011;60848;53.884;11.446;2022-12-18T11:44:40;136.48;;;53.38;;
28904;SDS011;60848;53.884;11.446;2022-12-18T11:47:18;136.75;;;53.83;;
28904;SDS011;60848;53.884;11.446;2022-12-18T11:49:56;134.25;;;52.53;;
28904;SDS011;60848;53.884;11.446;2022-12-18T11:52:31;133.93;;;52.47;;
28904;SDS011;60848;53.884;11.446;2022-12-18T11:55:05;132.93;;;52.67;;
28904;SDS011;60848;53.884;11.446;2022-12-18T11:57:43;138.95;;;54.38;;
28904;SDS011;60848;53.884;11.446;2022-12-18T12:00:23;135.25;;;53.42;;
28904;SDS011;60848;53.884;11.446;2022-12-18T12:06:08;131.73;;;51.97;;
28904;SDS011;60848;53.884;11.446;2022-12-18T12:08:48;134.50;;;52.57;;
28904;SDS011;60848;53.884;11.446;2022-12-18T12:11:33;134.02;;;52.67;;
28904;SDS011;60848;53.884;11.446;2022-12-18T12:14:21;132.05;;;51.95;;
28904;SDS011;60848;53.884;11.446;2022-12-18T12:17:04;134.73;;;52.80;;
28904;SDS011;60848;53.884;11.446;2022-12-18T12:19:46;136.60;;;52.20;;
28904;SDS011;60848;53.884;11.446;2022-12-18T12:22:23;134.70;;;53.30;;
28904;SDS011;60848;53.884;11.446;2022-12-18T12:24:59;134.30;;;52.42;;
28904;SDS011;60848;53.884;11.446;2022-12-18T12:27:44;136.25;;;52.30;;
28904;SDS011;60848;53.884;11.446;2022-12-18T12:30:21;134.05;;;53.25;;
28904;SDS011;60848;53.884;11.446;2022-12-18T12:33:01;133.18;;;52.70;;
28904;SDS011;60848;53.884;11.446;2022-12-18T12:35:49;135.73;;;52.90;;
28904;SDS011;60848;53.884;11.446;2022-12-18T12:38:28;131.68;;;51.30;;
28904;SDS011;60848;53.884;11.446;2022-12-18T12:41:03;132.03;;;52.07;;
28904;SDS011;60848;53.884;11.446;2022-12-18T12:43:56;130.57;;;51.97;;
28904;SDS011;60848;53.884;11.446;2022-12-18T12:46:28;131.35;;;52.47;;
28904;SDS011;60848;53.884;11.446;2022-12-18T12:49:00;133.82;;;52.80;;
28904;SDS011;60848;53.884;11.446;2022-12-18T12:51:34;132.18;;;52.05;;
28904;SDS011;60848;53.884;11.446;2022-12-18T12:54:16;133.25;;;52.83;;
28904;SDS011;60848;53.884;11.446;2022-12-18T12:56:48;133.82;;;52.78;;
28904;SDS011;60848;53.884;11.446;2022-12-18T12:59:28;135.05;;;53.42;;
28904;SDS011;60848;53.884;11.446;2022-12-18T13:02:05;133.20;;;52.97;;
28904;SDS011;60848;53.884;11.446;2022-12-18T13:04:45;132.68;;;52.10;;
28904;SDS011;60848;53.884;11.446;2022-12-18T13:07:23;132.15;;;52.58;;
28904;SDS011;60848;53.884;11.446;2022-12-18T13:10:13;129.45;;;51.65;;
28904;SDS011;60848;53.884;11.446;2022-12-18T13:12:55;135.43;;;53.58;;
28904;SDS011;60848;53.884;11.446;2022-12-18T13:15:25;135.57;;;53.65;;
28904;SDS011;60848;53.884;11.446;2022-12-18T13:18:12;133.70;;;52.42;;
28904;SDS011;60848;53.884;11.446;2022-12-18T13:20:45;133.57;;;53.42;;
28904;SDS011;60848;53.884;11.446;2022-12-18T13:23:32;133.35;;;52.90;;
28904;SDS011;60848;53.884;11.446;2022-12-18T13:29:00;131.50;;;52.33;;
28904;SDS011;60848;53.884;11.446;2022-12-18T13:35:03;130.73;;;52.05;;
28904;SDS011;60848;53.884;11.446;2022-12-18T13:38:19;132.27;;;52.08;;
28904;SDS011;60848;53.884;11.446;2022-12-18T13:40:54;129.85;;;51.38;;
28904;SDS011;60848;53.884;11.446;2022-12-18T13:43:29;130.30;;;52.50;;
28904;SDS011;60848;53.884;11.446;2022-12-18T13:46:18;131.30;;;51.95;;
28904;SDS011;60848;53.884;11.446;2022-12-18T13:48:54;128.98;;;52.00;;
28904;SDS011;60848;53.884;11.446;2022-12-18T13:51:26;127.75;;;51.50;;
28904;SDS011;60848;53.884;11.446;2022-12-18T13:53:58;132.05;;;51.67;;
28904;SDS011;60848;53.884;11.446;2022-12-18T13:56:31;133.95;;;52.65;;
28904;SDS011;60848;53.884;11.446;2022-12-18T14:01:51;130.88;;;52.65;;
28904;SDS011;60848;53.884;11.446;2022-12-18T14:04:23;139.57;;;54.37;;
28904;SDS011;60848;53.884;11.446;2022-12-18T14:06:56;133.90;;;53.20;;
28904;SDS011;60848;53.884;11.446;2022-12-18T14:09:29;132.35;;;51.85;;
28904;SDS011;60848;53.884;11.446;2022-12-18T14:12:05;130.98;;;52.40;;
28904;SDS011;60848;53.884;11.446;2022-12-18T14:14:59;132.40;;;52.25;;
28904;SDS011;60848;53.884;11.446;2022-12-18T14:17:28;133.63;;;53.13;;
28904;SDS011;60848;53.884;11.446;2022-12-18T14:20:00;133.00;;;52.83;;
28904;SDS011;60848;53.884;11.446;2022-12-18T14:22:28;130.32;;;51.45;;
28904;SDS011;60848;53.884;11.446;2022-12-18T14:25:06;135.13;;;53.40;;
28904;SDS011;60848;53.884;11.446;2022-12-18T14:27:45;135.25;;;52.97;;
28904;SDS011;60848;53.884;11.446;2022-12-18T14:30:23;132.33;;;51.90;;
28904;SDS011;60848;53.884;11.446;2022-12-18T14:33:04;130.87;;;51.97;;
28904;SDS011;60848;53.884;11.446;2022-12-18T14:35:37;129.50;;;52.75;;
28904;SDS011;60848;53.884;11.446;2022-12-18T14:38:11;129.38;;;51.72;;
28904;SDS011;60848;53.884;11.446;2022-12-18T14:40:53;128.65;;;51.40;;
28904;SDS011;60848;53.884;11.446;2022-12-18T14:43:31;128.88;;;51.90;;